createdAt,value
2018-12-05T00:00:15.887Z,85.21
2018-12-05T00:01:15.876Z,85.21
2018-12-05T00:02:15.865Z,85.21
2018-12-05T00:03:15.891Z,85.42
2018-12-05T00:04:15.843Z,85.52
2018-12-05T00:05:15.833Z,85.42
2018-12-05T00:06:15.824Z,85.21
2018-12-05T00:07:15.811Z,85.42
2018-12-05T00:08:15.811Z,85.52
2018-12-05T00:09:15.826Z,85.73
2018-12-05T00:10:15.783Z,85.42
2018-12-05T00:11:15.768Z,85.73
2018-12-05T00:12:15.757Z,85.73
2018-12-05T00:13:15.747Z,85.69
2018-12-05T00:14:15.736Z,85.63
2018-12-05T00:15:15.761Z,85.83
2018-12-05T00:16:15.714Z,85.42
2018-12-05T00:17:15.705Z,85.73
2018-12-05T00:18:15.695Z,85.42
2018-12-05T00:19:15.681Z,85.83
2018-12-05T00:20:15.671Z,85.63
2018-12-05T00:21:15.694Z,85.63
2018-12-05T00:22:15.648Z,85.94
2018-12-05T00:23:15.639Z,85.83
2018-12-05T00:24:15.628Z,85.73
2018-12-05T00:25:15.615Z,85.73
2018-12-05T00:26:15.613Z,85.73
2018-12-05T00:27:15.632Z,85.63
2018-12-05T00:28:15.584Z,85.63
2018-12-05T00:29:15.574Z,85.83
2018-12-05T00:30:15.561Z,86.04
2018-12-05T00:31:15.554Z,85.94
2018-12-05T00:32:15.541Z,86.15
2018-12-05T00:33:15.567Z,86.04
2018-12-05T00:34:15.518Z,86.15
2018-12-05T00:35:15.509Z,86.35
2018-12-05T00:36:15.497Z,86.15
2018-12-05T00:37:15.485Z,85.94
2018-12-05T00:38:15.475Z,85.83
2018-12-05T00:39:15.500Z,86.57
2018-12-05T00:40:15.454Z,85.94
2018-12-05T00:41:15.443Z,86.15
2018-12-05T00:42:15.431Z,85.83
2018-12-05T00:43:15.421Z,86.15
2018-12-05T00:44:15.409Z,85.94
2018-12-05T00:45:15.435Z,86.04
2018-12-05T00:46:15.393Z,86.57
2018-12-05T00:47:15.378Z,86.77
2018-12-05T00:48:15.371Z,86.46
2018-12-05T00:49:15.359Z,86.77
2018-12-05T00:50:15.346Z,86.57
2018-12-05T00:51:15.371Z,86.67
2018-12-05T00:52:15.327Z,86.77
2018-12-05T00:53:15.314Z,86.81
2018-12-05T00:54:15.308Z,86.98
2018-12-05T00:55:15.292Z,86.91
2018-12-05T00:56:15.282Z,86.67
2018-12-05T00:57:15.307Z,86.77
2018-12-05T00:58:15.262Z,86.88
2018-12-05T00:59:15.251Z,86.71
2018-12-05T01:00:15.240Z,86.71
2018-12-05T01:01:15.230Z,86.81
2018-12-05T01:02:15.217Z,86.91
2018-12-05T01:03:15.242Z,86.67
2018-12-05T01:04:15.197Z,86.60
2018-12-05T01:05:15.185Z,86.60
2018-12-05T01:06:15.179Z,86.71
2018-12-05T01:07:15.168Z,86.91
2018-12-05T01:08:15.156Z,86.81
2018-12-05T01:09:15.186Z,87.02
2018-12-05T01:10:15.132Z,87.02
2018-12-05T01:11:15.123Z,86.91
2018-12-05T01:12:15.115Z,87.23
2018-12-05T01:13:15.101Z,87.33
2018-12-05T01:14:15.092Z,87.23
2018-12-05T01:15:15.119Z,87.33
2018-12-05T01:16:15.068Z,87.12
2018-12-05T01:17:15.058Z,87.23
2018-12-05T01:18:15.053Z,87.23
2018-12-05T01:19:15.035Z,87.33
2018-12-05T01:20:15.024Z,87.33
2018-12-05T01:21:15.042Z,87.23
2018-12-05T01:22:15.001Z,87.54
2018-12-05T01:23:14.990Z,87.43
2018-12-05T01:24:14.980Z,87.33
2018-12-05T01:25:15.004Z,87.85
2018-12-05T01:26:14.959Z,87.43
2018-12-05T01:27:14.947Z,87.33
2018-12-05T01:28:14.936Z,87.27
2018-12-05T01:29:14.927Z,87.65
2018-12-05T01:30:14.915Z,87.65
2018-12-05T01:31:14.928Z,87.65
2018-12-05T01:32:14.893Z,87.65
2018-12-05T01:33:16.355Z,87.54
2018-12-05T01:34:14.873Z,87.43
2018-12-05T01:35:14.859Z,87.54
2018-12-05T01:36:14.887Z,87.12
2018-12-05T01:37:14.842Z,87.75
2018-12-05T01:38:14.828Z,87.75
2018-12-05T01:39:14.818Z,87.75
2018-12-05T01:40:14.808Z,87.75
2018-12-05T01:41:14.796Z,87.65
2018-12-05T01:42:14.822Z,88.17
2018-12-05T01:43:14.784Z,87.99
2018-12-05T01:44:14.765Z,88.06
2018-12-05T01:45:14.753Z,88.06
2018-12-05T01:46:14.743Z,87.96
2018-12-05T01:47:14.734Z,88.06
2018-12-05T01:48:14.761Z,88.06
2018-12-05T01:49:14.709Z,88.10
2018-12-05T01:50:14.699Z,88.17
2018-12-05T01:51:14.692Z,88.06
2018-12-05T01:52:14.678Z,88.17
2018-12-05T01:53:14.667Z,88.06
2018-12-05T01:54:14.683Z,88.10
2018-12-05T01:55:14.645Z,88.06
2018-12-05T01:56:14.635Z,88.17
2018-12-05T01:57:14.626Z,88.10
2018-12-05T01:58:14.615Z,88.06
2018-12-05T01:59:14.631Z,88.10
2018-12-05T02:00:14.593Z,88.06
2018-12-05T02:01:14.585Z,88.17
2018-12-05T02:02:14.576Z,88.06
2018-12-05T02:03:14.564Z,87.96
2018-12-05T02:04:14.578Z,87.99
2018-12-05T02:05:14.545Z,88.48
2018-12-05T02:06:15.286Z,88.31
2018-12-05T02:07:14.519Z,88.20
2018-12-05T02:08:14.510Z,87.99
2018-12-05T02:09:14.539Z,88.10
2018-12-05T02:10:14.490Z,88.06
2018-12-05T02:11:14.482Z,88.42
2018-12-05T04:36:46.595Z,90.58
2018-12-05T04:37:53.601Z,90.85
2018-12-05T04:38:46.548Z,90.89
2018-12-05T04:39:46.540Z,91.06
2018-12-05T04:40:46.554Z,91.10
2018-12-05T04:41:46.515Z,90.75
2018-12-05T04:42:46.506Z,90.89
2018-12-05T04:43:46.521Z,91.06
2018-12-05T04:44:46.487Z,91.00
2018-12-05T04:45:46.501Z,91.31
2018-12-05T04:46:46.467Z,91.10
2018-12-05T04:47:46.454Z,91.93
2018-12-05T04:48:46.447Z,91.10
2018-12-05T04:49:46.433Z,91.83
2018-12-05T04:50:46.447Z,91.72
2018-12-05T04:51:46.412Z,91.72
2018-12-05T04:52:46.406Z,91.72
2018-12-05T04:53:46.397Z,92.03
2018-12-05T04:54:46.382Z,92.25
2018-12-05T04:55:46.397Z,92.14
2018-12-05T04:56:46.365Z,92.03
2018-12-05T04:57:46.350Z,91.72
2018-12-05T04:58:46.342Z,91.83
2018-12-05T04:59:46.330Z,91.93
2018-12-05T05:00:46.343Z,92.03
2018-12-05T05:01:46.314Z,92.14
2018-12-05T05:02:46.297Z,92.25
2018-12-05T05:03:46.288Z,91.93
2018-12-05T05:04:46.275Z,92.50
2018-12-05T05:05:46.291Z,92.14
2018-12-05T05:06:46.269Z,92.14
2018-12-05T05:07:46.242Z,92.25
2018-12-05T05:08:46.232Z,92.03
2018-12-05T05:09:46.224Z,92.35
2018-12-05T05:10:46.236Z,92.03
2018-12-05T05:11:46.203Z,92.46
2018-12-05T05:12:46.190Z,92.56
2018-12-05T05:13:46.180Z,92.56
2018-12-05T05:14:46.170Z,92.46
2018-12-05T05:15:46.185Z,92.25
2018-12-05T05:16:46.153Z,92.56
2018-12-05T05:17:46.135Z,92.46
2018-12-05T05:18:46.128Z,92.46
2018-12-05T05:19:46.118Z,92.56
2018-12-05T05:20:46.140Z,92.71
2018-12-05T05:21:46.098Z,92.56
2018-12-05T05:22:46.084Z,93.54
2018-12-05T05:23:46.074Z,92.35
2018-12-05T05:24:46.063Z,92.81
2018-12-05T05:25:46.080Z,92.81
2018-12-05T05:26:46.040Z,93.02
2018-12-05T05:27:46.205Z,92.87
2018-12-05T05:28:46.020Z,92.91
2018-12-05T05:29:46.011Z,92.50
2018-12-05T05:30:46.024Z,93.08
2018-12-05T05:31:45.987Z,92.60
2018-12-05T05:32:45.979Z,92.60
2018-12-05T05:33:45.972Z,92.66
2018-12-05T05:34:45.969Z,92.71
2018-12-05T05:35:45.972Z,92.81
2018-12-05T05:36:45.934Z,92.91
2018-12-05T05:37:45.932Z,92.71
2018-12-05T05:38:45.921Z,92.71
2018-12-05T05:39:45.906Z,93.12
2018-12-05T05:40:45.930Z,93.12
2018-12-05T05:41:45.881Z,93.12
2018-12-05T05:42:45.873Z,93.12
2018-12-05T05:43:45.862Z,93.12
2018-12-05T05:44:45.849Z,93.12
2018-12-05T05:45:45.841Z,92.81
2018-12-05T05:46:45.854Z,93.12
2018-12-05T05:47:45.817Z,93.08
2018-12-05T05:48:45.807Z,93.12
2018-12-05T05:49:45.801Z,93.12
2018-12-05T05:50:45.787Z,93.02
2018-12-05T05:51:45.835Z,93.33
2018-12-05T05:52:45.783Z,93.85
2018-12-05T05:53:45.757Z,93.85
2018-12-05T05:54:45.742Z,93.85
2018-12-05T05:55:45.733Z,93.75
2018-12-05T05:56:45.727Z,93.65
2018-12-05T05:57:45.740Z,93.75
2018-12-05T05:58:45.702Z,93.75
2018-12-05T05:59:45.692Z,93.85
2018-12-05T06:00:45.683Z,93.75
2018-12-05T06:01:45.704Z,93.75
2018-12-05T06:02:45.659Z,93.44
2018-12-05T06:03:45.648Z,93.33
2018-12-05T06:04:45.636Z,93.85
2018-12-05T06:05:45.640Z,93.33
2018-12-05T06:06:45.615Z,93.44
2018-12-05T06:07:45.651Z,93.54
2018-12-05T06:08:45.598Z,93.44
2018-12-05T06:09:45.585Z,93.54
2018-12-05T06:10:45.579Z,93.75
2018-12-05T06:11:45.567Z,93.85
2018-12-05T06:12:45.554Z,93.54
2018-12-05T06:13:45.582Z,93.85
2018-12-05T06:14:45.538Z,93.65
2018-12-05T06:15:45.520Z,93.54
2018-12-05T06:16:45.509Z,94.06
2018-12-05T06:17:45.501Z,93.44
2018-12-05T06:18:45.488Z,94.06
2018-12-05T06:19:45.502Z,93.65
2018-12-05T06:20:45.468Z,93.54
2018-12-05T06:21:45.455Z,93.44
2018-12-05T06:22:45.454Z,94.06
2018-12-05T06:23:45.434Z,93.44
2018-12-05T06:24:45.452Z,93.54
2018-12-05T06:25:45.431Z,93.54
2018-12-05T06:26:45.408Z,93.96
2018-12-05T06:27:45.397Z,93.65
2018-12-05T06:28:45.390Z,93.54
2018-12-05T06:29:45.398Z,93.96
2018-12-05T06:30:45.361Z,94.17
2018-12-05T06:31:45.389Z,93.96
2018-12-05T06:32:45.346Z,93.75
2018-12-05T06:33:45.327Z,93.33
2018-12-05T06:34:45.345Z,93.75
2018-12-05T06:35:45.307Z,93.65
2018-12-05T06:36:45.296Z,93.85
2018-12-05T06:37:45.285Z,93.65
2018-12-05T06:38:45.282Z,93.75
2018-12-05T06:39:45.289Z,93.75
2018-12-05T06:40:45.253Z,93.54
2018-12-05T06:41:45.244Z,93.75
2018-12-05T06:42:45.231Z,93.65
2018-12-05T06:43:45.226Z,93.75
2018-12-05T06:44:45.236Z,93.54
2018-12-05T06:45:45.206Z,93.65
2018-12-05T06:46:45.191Z,93.33
2018-12-05T06:47:45.185Z,93.48
2018-12-05T06:48:45.165Z,93.37
2018-12-05T06:49:45.196Z,93.48
2018-12-05T06:50:45.146Z,93.79
2018-12-05T06:51:45.147Z,93.59
2018-12-05T06:52:45.137Z,94.17
2018-12-05T06:53:45.114Z,94.27
2018-12-05T06:54:45.101Z,94.21
2018-12-05T06:55:45.117Z,94.10
2018-12-05T06:56:45.132Z,94.10
2018-12-05T06:57:45.069Z,94.21
2018-12-05T06:58:45.058Z,94.21
2018-12-05T06:59:45.050Z,94.10
2018-12-05T07:00:45.087Z,94.31
2018-12-05T07:01:45.029Z,94.21
2018-12-05T07:02:45.020Z,94.00
2018-12-05T07:03:45.007Z,94.21
2018-12-05T07:04:44.996Z,94.31
2018-12-05T07:05:44.985Z,94.21
2018-12-05T07:06:45.002Z,94.21
2018-12-05T07:07:45.007Z,94.10
2018-12-05T07:08:44.953Z,94.21
2018-12-05T07:09:44.941Z,94.21
2018-12-05T07:10:44.930Z,94.21
2018-12-05T07:11:44.956Z,94.21
2018-12-05T07:12:44.910Z,94.10
2018-12-05T07:13:44.898Z,94.10
2018-12-05T07:14:44.890Z,94.21
2018-12-05T07:15:44.879Z,94.21
2018-12-05T07:16:44.866Z,94.31
2018-12-05T07:17:44.890Z,94.00
2018-12-05T07:18:44.844Z,94.21
2018-12-05T07:19:44.836Z,94.00
2018-12-05T07:20:44.824Z,94.00
2018-12-05T07:21:44.813Z,94.21
2018-12-05T07:22:44.803Z,93.79
2018-12-05T07:23:44.827Z,94.00
2018-12-05T07:24:44.781Z,94.10
2018-12-05T07:25:44.770Z,93.69
2018-12-05T07:26:44.759Z,94.00
2018-12-05T07:27:44.749Z,93.48
2018-12-05T07:28:44.738Z,93.69
2018-12-05T07:29:44.764Z,93.69
2018-12-05T07:30:44.717Z,93.69
2018-12-05T07:31:44.707Z,93.59
2018-12-05T07:32:44.695Z,93.59
2018-12-05T07:33:44.692Z,94.21
2018-12-05T07:34:44.674Z,94.10
2018-12-05T07:35:44.687Z,94.21
2018-12-05T07:36:44.656Z,94.10
2018-12-05T07:37:44.641Z,94.10
2018-12-05T07:38:44.632Z,93.59
2018-12-05T07:39:44.645Z,94.00
2018-12-05T07:40:44.641Z,94.21
2018-12-05T07:41:44.600Z,94.00
2018-12-05T07:42:44.588Z,94.00
2018-12-05T07:43:44.649Z,94.10
2018-12-05T07:44:44.594Z,93.96
2018-12-05T07:45:44.568Z,93.69
2018-12-05T07:46:44.544Z,93.90
2018-12-05T07:47:44.535Z,93.59
2018-12-05T07:48:44.524Z,93.79
2018-12-05T07:49:44.538Z,93.75
2018-12-05T07:50:44.502Z,93.69
2018-12-05T07:51:44.491Z,93.69
2018-12-05T07:52:44.481Z,93.69
2018-12-05T07:53:44.490Z,93.48
2018-12-05T07:54:44.498Z,93.69
2018-12-05T07:55:44.449Z,93.48
2018-12-05T07:56:44.438Z,93.54
2018-12-05T07:57:44.431Z,93.48
2018-12-05T07:58:44.418Z,93.37
2018-12-05T07:59:44.437Z,93.90
2018-12-05T08:00:44.400Z,93.75
2018-12-05T08:01:44.387Z,94.00
2018-12-05T08:02:44.373Z,93.90
2018-12-05T08:03:44.381Z,93.79
2018-12-05T08:04:44.380Z,93.85
2018-12-05T08:05:44.341Z,93.16
2018-12-05T08:06:44.331Z,92.96
2018-12-05T08:07:44.319Z,92.75
2018-12-05T08:08:44.309Z,92.85
2018-12-05T08:09:44.323Z,93.16
2018-12-05T08:10:44.289Z,93.16
2018-12-05T08:11:44.276Z,93.48
2018-12-05T08:12:44.265Z,93.37
2018-12-05T08:13:44.254Z,93.79
2018-12-05T08:14:44.270Z,93.79
2018-12-05T08:15:44.237Z,93.69
2018-12-05T08:16:44.226Z,93.90
2018-12-05T08:17:44.211Z,93.79
2018-12-05T08:18:44.202Z,93.79
2018-12-05T08:19:44.232Z,93.90
2018-12-05T08:20:44.180Z,93.69
2018-12-05T08:21:44.169Z,93.79
2018-12-05T08:22:44.158Z,93.79
2018-12-05T08:23:44.148Z,93.90
2018-12-05T08:24:44.162Z,93.59
2018-12-05T08:25:44.127Z,93.23
2018-12-05T08:26:44.114Z,92.81
2018-12-05T08:27:44.107Z,92.81
2018-12-05T08:28:44.094Z,92.91
2018-12-05T08:29:44.111Z,93.02
2018-12-05T08:30:44.074Z,93.02
2018-12-05T08:31:44.060Z,92.81
2018-12-05T08:32:44.054Z,92.29
2018-12-05T08:33:44.040Z,92.50
2018-12-05T08:34:44.062Z,92.60
2018-12-05T08:35:44.017Z,92.71
2018-12-05T08:36:44.008Z,92.46
2018-12-05T08:37:43.996Z,92.25
2018-12-05T08:38:43.987Z,92.56
2018-12-05T08:39:44.022Z,92.14
2018-12-05T08:40:43.964Z,92.03
2018-12-05T08:41:43.954Z,91.93
2018-12-05T08:42:43.944Z,92.10
2018-12-05T08:43:44.644Z,91.78
2018-12-05T08:44:43.944Z,92.10
2018-12-05T08:45:43.911Z,91.78
2018-12-05T08:46:43.902Z,92.00
2018-12-05T08:47:43.890Z,91.58
2018-12-05T08:48:43.879Z,92.79
2018-12-05T08:49:43.905Z,92.37
2018-12-05T08:50:43.857Z,91.85
2018-12-05T08:51:43.846Z,91.28
2018-12-05T08:52:43.834Z,90.29
2018-12-05T08:53:43.825Z,90.50
2018-12-05T08:54:43.839Z,90.19
2018-12-05T08:55:43.807Z,90.14
2018-12-05T08:56:43.793Z,89.94
2018-12-05T08:57:43.782Z,89.45
2018-12-05T08:58:43.774Z,89.20
2018-12-05T08:59:43.799Z,89.10
2018-12-05T09:00:43.765Z,89.00
2018-12-05T09:01:43.742Z,89.10
2018-12-05T09:02:43.739Z,89.10
2018-12-05T09:03:43.721Z,89.52
2018-12-05T09:04:43.737Z,89.41
2018-12-05T09:05:43.704Z,89.41
2018-12-05T09:06:43.695Z,88.75
2018-12-05T09:07:43.678Z,88.54
2018-12-05T09:08:43.670Z,88.85
2018-12-05T09:09:43.707Z,88.54
2018-12-05T09:10:43.648Z,88.43
2018-12-05T09:11:43.637Z,88.75
2018-12-05T09:12:43.625Z,88.75
2018-12-05T09:13:43.617Z,88.40
2018-12-05T09:14:43.631Z,88.40
2018-12-05T09:15:43.594Z,88.33
2018-12-05T09:16:43.583Z,87.88
2018-12-05T09:17:43.575Z,87.98
2018-12-05T09:18:43.562Z,88.09
2018-12-05T09:19:43.586Z,87.04
2018-12-05T09:20:43.541Z,87.63
2018-12-05T09:21:43.530Z,87.46
2018-12-05T09:22:43.519Z,87.01
2018-12-05T09:23:43.534Z,87.11
2018-12-05T09:24:43.498Z,86.69
2018-12-05T09:25:43.486Z,86.90
2018-12-05T09:26:43.477Z,86.49
2018-12-05T09:27:43.465Z,85.86
2018-12-05T09:28:43.478Z,86.07
2018-12-05T09:29:43.443Z,85.96
2018-12-05T09:30:43.434Z,85.86
2018-12-05T09:31:43.422Z,85.96
2018-12-05T09:32:43.411Z,85.93
2018-12-05T09:33:43.429Z,85.82
2018-12-05T09:34:43.388Z,85.61
2018-12-05T09:35:43.380Z,85.20
2018-12-05T09:36:43.370Z,85.30
2018-12-05T09:37:43.356Z,85.51
2018-12-05T09:38:43.370Z,85.41
2018-12-05T09:39:43.335Z,85.20
2018-12-05T09:40:43.325Z,84.95
2018-12-05T09:41:43.316Z,84.84
2018-12-05T09:42:43.303Z,85.16
2018-12-05T09:43:43.318Z,85.05
2018-12-05T09:44:43.281Z,85.26
2018-12-05T09:45:43.274Z,84.53
2018-12-05T09:46:43.259Z,84.43
2018-12-05T09:47:43.248Z,84.22
2018-12-05T09:48:43.271Z,84.43
2018-12-05T09:49:43.228Z,84.22
2018-12-05T09:50:43.216Z,83.98
2018-12-05T09:51:43.207Z,83.98
2018-12-05T09:52:43.215Z,83.98
2018-12-05T09:53:43.209Z,83.77
2018-12-05T09:54:43.174Z,83.56
2018-12-05T09:55:43.165Z,83.77
2018-12-05T09:56:43.158Z,83.46
2018-12-05T09:57:43.142Z,83.42
2018-12-05T09:58:43.169Z,83.63
2018-12-05T09:59:43.121Z,83.15
2018-12-05T10:00:43.110Z,82.90
2018-12-05T10:01:43.098Z,83.11
2018-12-05T10:02:43.089Z,83.11
2018-12-05T10:03:43.103Z,83.22
2018-12-05T10:04:43.066Z,83.32
2018-12-05T10:05:43.056Z,82.80
2018-12-05T10:06:43.046Z,82.65
2018-12-05T10:07:43.035Z,82.34
2018-12-05T10:08:43.050Z,81.93
2018-12-05T10:09:43.429Z,82.24
2018-12-05T10:10:43.003Z,81.51
2018-12-05T10:11:42.993Z,81.62
2018-12-05T10:12:42.982Z,81.37
2018-12-05T10:13:42.996Z,80.96
2018-12-05T10:14:42.960Z,80.85
2018-12-05T10:15:42.948Z,80.44
2018-12-05T10:16:42.937Z,80.85
2018-12-05T10:17:42.933Z,80.96
2018-12-05T10:18:42.950Z,80.13
2018-12-05T10:19:42.907Z,80.02
2018-12-05T10:20:42.898Z,80.13
2018-12-05T10:21:42.885Z,80.19
2018-12-05T10:22:42.876Z,80.30
2018-12-05T10:23:42.888Z,80.51
2018-12-05T10:24:42.851Z,79.88
2018-12-05T10:25:42.843Z,79.68
2018-12-05T10:26:42.835Z,79.78
2018-12-05T10:27:42.821Z,79.68
2018-12-05T10:28:42.837Z,79.64
2018-12-05T10:29:42.801Z,79.44
2018-12-05T10:30:42.790Z,79.33
2018-12-05T10:31:44.168Z,78.81
2018-12-05T10:32:42.768Z,78.09
2018-12-05T10:33:42.782Z,78.16
2018-12-05T10:34:42.751Z,77.95
2018-12-05T10:35:42.737Z,76.98
2018-12-05T10:36:42.726Z,76.88
2018-12-05T10:37:42.714Z,75.67
2018-12-05T10:38:42.730Z,75.22
2018-12-05T10:39:42.699Z,73.95
2018-12-05T10:40:42.685Z,71.99
2018-12-05T10:41:42.672Z,69.45
2018-12-05T10:42:42.661Z,67.40
2018-12-05T10:43:42.676Z,64.76
2018-12-05T10:44:42.654Z,63.03
2018-12-05T10:45:42.632Z,61.02
2018-12-05T10:46:42.618Z,59.97
2018-12-05T10:47:42.611Z,58.38
2018-12-05T10:48:42.621Z,57.53
2018-12-05T10:49:42.593Z,56.59
2018-12-05T10:50:42.585Z,56.35
2018-12-05T10:51:42.570Z,55.18
2018-12-05T10:52:42.554Z,54.16
2018-12-05T10:53:42.567Z,54.03
2018-12-05T10:54:42.541Z,53.72
2018-12-05T10:55:42.521Z,52.67
2018-12-05T10:56:42.510Z,53.08
2018-12-05T10:57:42.499Z,52.58
2018-12-05T10:58:42.517Z,52.27
2018-12-05T10:59:42.479Z,52.91
2018-12-05T11:00:42.468Z,52.39
2018-12-05T11:01:42.456Z,52.50
2018-12-05T11:02:42.446Z,52.39
2018-12-05T11:03:42.460Z,53.52
2018-12-05T11:04:42.425Z,53.59
2018-12-05T11:05:42.414Z,53.39
2018-12-05T11:06:42.404Z,53.42
2018-12-05T11:07:42.410Z,53.01
2018-12-05T11:08:42.405Z,52.29
2018-12-05T11:09:42.373Z,52.80
2018-12-05T11:10:42.358Z,53.19
2018-12-05T11:11:42.350Z,52.70
2018-12-05T11:12:42.336Z,52.67
2018-12-05T11:13:42.353Z,52.17
2018-12-05T11:14:42.317Z,52.27
2018-12-05T11:15:42.305Z,51.86
2018-12-05T11:16:42.292Z,51.15
2018-12-05T11:17:42.297Z,50.94
2018-12-05T11:18:42.307Z,52.29
2018-12-05T11:19:42.267Z,52.19
2018-12-05T11:20:42.255Z,51.91
2018-12-05T11:21:49.551Z,52.39
2018-12-05T11:22:43.231Z,51.68
2018-12-05T11:23:42.246Z,50.86
2018-12-05T11:24:42.208Z,50.86
2018-12-05T11:25:42.195Z,52.39
2018-12-05T11:26:42.185Z,51.68
2018-12-05T11:27:42.175Z,50.96
2018-12-05T11:28:42.190Z,50.89
2018-12-05T11:29:42.680Z,51.19
2018-12-05T11:30:42.161Z,51.19
2018-12-05T11:31:42.133Z,51.09
2018-12-05T11:32:42.122Z,50.68
2018-12-05T11:33:42.134Z,50.78
2018-12-05T11:34:42.099Z,52.16
2018-12-05T11:35:42.088Z,52.78
2018-12-05T11:36:42.079Z,52.80
2018-12-05T11:37:42.069Z,53.62
2018-12-05T11:38:42.084Z,54.03
2018-12-05T11:39:42.044Z,53.03
2018-12-05T11:40:42.047Z,54.16
2018-12-05T11:41:42.024Z,53.77
2018-12-05T11:42:42.010Z,53.80
2018-12-05T11:43:42.025Z,54.10
2018-12-05T11:44:41.991Z,54.53
2018-12-05T11:45:41.983Z,54.53
2018-12-05T11:46:41.969Z,54.13
2018-12-05T11:47:41.959Z,54.33
2018-12-05T11:48:41.973Z,54.33
2018-12-05T11:49:41.938Z,54.05
2018-12-05T11:50:41.927Z,54.38
2018-12-05T11:51:41.918Z,54.28
2018-12-05T11:52:41.906Z,54.69
2018-12-05T11:53:41.920Z,54.41
2018-12-05T11:54:41.889Z,54.82
2018-12-05T11:55:41.871Z,54.30
2018-12-05T11:56:41.860Z,55.46
2018-12-05T11:57:41.850Z,56.38
2018-12-05T11:58:41.863Z,56.70
2018-12-05T11:59:41.829Z,56.70
2018-12-05T12:00:41.817Z,56.38
2018-12-05T12:01:41.813Z,56.85
2018-12-05T12:02:41.804Z,56.72
2018-12-05T12:03:41.828Z,56.95
2018-12-05T12:04:41.778Z,56.31
2018-12-05T12:05:41.764Z,56.41
2018-12-05T12:06:41.757Z,57.03
2018-12-05T12:07:41.743Z,57.23
2018-12-05T12:08:41.759Z,56.62
2018-12-05T12:09:41.720Z,56.72
2018-12-05T12:10:41.710Z,56.70
2018-12-05T12:11:41.699Z,55.74
2018-12-05T12:12:41.690Z,55.36
2018-12-05T12:13:41.715Z,55.26
2018-12-05T12:14:41.668Z,56.38
2018-12-05T12:15:41.656Z,55.98
2018-12-05T12:16:41.646Z,54.95
2018-12-05T12:17:41.994Z,55.57
2018-12-05T12:18:41.653Z,55.46
2018-12-05T12:19:41.615Z,55.66
2018-12-05T12:20:41.604Z,55.05
2018-12-05T12:21:41.592Z,55.98
2018-12-05T12:22:41.581Z,56.72
2018-12-05T12:23:41.594Z,56.41
2018-12-05T12:24:41.560Z,56.93
2018-12-05T12:25:41.556Z,56.62
2018-12-05T12:26:41.541Z,56.51
2018-12-05T12:27:41.528Z,56.74
2018-12-05T12:28:41.541Z,56.64
2018-12-05T12:29:41.503Z,57.16
2018-12-05T12:30:41.499Z,56.98
2018-12-05T12:31:41.483Z,57.18
2018-12-05T12:32:41.472Z,57.90
2018-12-05T12:33:41.487Z,58.21
2018-12-05T12:34:41.461Z,57.78
2018-12-05T12:35:41.439Z,58.01
2018-12-05T12:36:41.454Z,58.01
2018-12-05T12:37:41.420Z,58.52
2018-12-05T12:38:41.440Z,58.54
2018-12-05T12:39:41.404Z,59.47
2018-12-05T12:40:41.388Z,59.70
2018-12-05T12:41:41.381Z,59.91
2018-12-05T12:42:41.366Z,59.50
2018-12-05T12:43:41.384Z,60.66
2018-12-05T12:44:41.343Z,60.25
2018-12-05T12:45:41.334Z,59.94
2018-12-05T12:46:41.324Z,60.56
2018-12-05T12:47:41.398Z,60.38
2018-12-05T12:48:41.327Z,61.07
2018-12-05T12:49:41.288Z,60.49
2018-12-05T12:50:41.279Z,60.69
2018-12-05T12:51:41.269Z,60.79
2018-12-05T12:52:41.266Z,61.00
2018-12-05T12:53:41.272Z,61.61
2018-12-05T12:54:41.236Z,61.93
2018-12-05T12:55:41.224Z,62.75
2018-12-05T12:56:41.216Z,62.85
2018-12-05T12:57:41.207Z,63.47
2018-12-05T12:58:41.219Z,63.37
2018-12-05T12:59:41.201Z,63.57
2018-12-05T13:00:41.184Z,64.09
2018-12-05T13:01:41.161Z,63.47
2018-12-05T13:02:41.148Z,64.02
2018-12-05T13:03:41.163Z,63.92
2018-12-05T13:04:41.128Z,64.95
2018-12-05T13:05:41.118Z,64.95
2018-12-05T13:06:41.106Z,64.95
2018-12-05T13:07:41.100Z,65.49
2018-12-05T13:08:41.109Z,65.28
2018-12-05T13:09:41.072Z,65.39
2018-12-05T13:10:41.066Z,65.28
2018-12-05T13:11:41.052Z,65.46
2018-12-05T13:12:41.041Z,65.05
2018-12-05T13:13:41.053Z,65.15
2018-12-05T13:14:41.019Z,64.95
2018-12-05T13:15:41.012Z,64.22
2018-12-05T13:16:41.000Z,64.84
2018-12-05T13:17:40.985Z,64.56
2018-12-05T13:18:40.996Z,65.08
2018-12-05T13:19:40.966Z,65.15
2018-12-05T13:20:40.953Z,64.46
2018-12-05T13:21:40.953Z,64.53
2018-12-05T13:22:41.004Z,64.81
2018-12-05T13:23:40.949Z,63.29
2018-12-05T13:24:40.909Z,63.60
2018-12-05T13:25:40.898Z,64.02
2018-12-05T13:26:40.885Z,63.92
2018-12-05T13:27:40.876Z,63.50
2018-12-05T13:28:40.969Z,64.19
2018-12-05T13:29:40.859Z,63.37
2018-12-05T13:30:40.844Z,63.29
2018-12-05T13:31:40.837Z,63.40
2018-12-05T13:32:40.819Z,64.02
2018-12-05T13:33:40.838Z,63.71
2018-12-05T13:34:40.798Z,64.12
2018-12-05T13:35:40.792Z,64.74
2018-12-05T13:36:40.777Z,64.12
2018-12-05T13:37:40.765Z,64.09
2018-12-05T13:38:40.778Z,63.78
2018-12-05T13:39:40.744Z,63.57
2018-12-05T13:40:40.733Z,63.27
2018-12-05T13:41:40.724Z,63.99
2018-12-05T13:42:40.720Z,63.34
2018-12-05T13:43:40.730Z,63.78
2018-12-05T13:44:40.697Z,63.45
2018-12-05T13:45:40.681Z,63.24
2018-12-05T13:46:40.668Z,63.47
2018-12-05T13:47:40.661Z,63.85
2018-12-05T13:48:40.673Z,63.47
2018-12-05T13:49:40.636Z,63.57
2018-12-05T13:50:40.630Z,63.57
2018-12-05T13:51:40.624Z,63.47
2018-12-05T13:52:40.609Z,63.68
2018-12-05T13:53:40.621Z,63.75
2018-12-05T13:54:40.583Z,63.68
2018-12-05T13:55:40.572Z,63.57
2018-12-05T13:56:40.566Z,64.02
2018-12-05T13:57:40.574Z,64.56
2018-12-05T13:58:40.577Z,64.98
2018-12-05T13:59:40.532Z,65.70
2018-12-05T14:00:40.517Z,65.31
2018-12-05T14:01:40.507Z,65.73
2018-12-05T14:02:40.583Z,65.73
2018-12-05T14:03:40.616Z,66.97
2018-12-05T14:04:40.516Z,67.21
2018-12-05T14:05:40.508Z,66.89
2018-12-05T14:06:40.541Z,66.69
2018-12-05T14:07:40.483Z,67.30
2018-12-05T14:08:40.522Z,67.24
2018-12-05T14:09:40.426Z,66.72
2018-12-05T14:10:40.465Z,67.34
2018-12-05T14:11:40.423Z,66.93
2018-12-05T14:12:40.429Z,67.27
2018-12-05T14:13:40.517Z,67.37
2018-12-05T14:14:40.403Z,67.37
2018-12-05T14:15:40.381Z,67.47
2018-12-05T14:16:40.385Z,67.16
2018-12-05T14:17:40.337Z,67.58
2018-12-05T14:18:40.361Z,68.02
2018-12-05T14:19:40.312Z,67.19
2018-12-05T14:20:40.303Z,67.91
2018-12-05T14:21:40.290Z,67.82
2018-12-05T14:22:40.282Z,68.12
2018-12-05T14:23:40.298Z,68.64
2018-12-05T14:24:40.263Z,68.54
2018-12-05T14:25:40.249Z,68.43
2018-12-05T14:26:40.238Z,68.46
2018-12-05T14:27:40.226Z,68.36
2018-12-05T14:28:40.241Z,69.09
2018-12-05T14:29:40.205Z,68.67
2018-12-05T14:30:40.197Z,69.09
2018-12-05T14:31:40.188Z,68.77
2018-12-05T14:32:40.173Z,69.22
2018-12-05T14:33:40.190Z,69.29
2018-12-05T14:34:40.153Z,69.84
2018-12-05T14:35:40.142Z,69.53
2018-12-05T14:36:40.132Z,69.64
2018-12-05T14:37:40.120Z,69.95
2018-12-05T14:38:40.132Z,70.57
2018-12-05T14:39:40.099Z,70.15
2018-12-05T14:40:40.109Z,70.87
2018-12-05T14:41:40.078Z,70.98
2018-12-05T14:42:40.069Z,71.01
2018-12-05T14:43:40.080Z,71.33
2018-12-05T14:44:40.054Z,71.39
2018-12-05T14:45:40.034Z,71.73
2018-12-05T14:46:40.022Z,71.73
2018-12-05T14:47:40.013Z,71.84
2018-12-05T14:48:40.027Z,72.67
2018-12-05T14:49:39.987Z,72.46
2018-12-05T14:50:39.979Z,72.36
2018-12-05T14:51:39.970Z,71.73
2018-12-05T14:52:39.959Z,72.15
2018-12-05T14:53:39.973Z,71.88
2018-12-05T14:54:39.956Z,72.29
2018-12-05T14:55:39.923Z,71.98
2018-12-05T14:56:39.911Z,72.19
2018-12-05T14:57:39.902Z,72.50
2018-12-05T14:58:39.927Z,72.71
2018-12-05T14:59:39.879Z,72.81
2018-12-05T15:00:39.872Z,72.60
2018-12-05T15:01:39.858Z,72.53
2018-12-05T15:02:39.847Z,72.84
2018-12-05T15:03:39.861Z,72.63
2018-12-05T15:04:39.826Z,72.84
2018-12-05T15:05:39.817Z,72.94
2018-12-05T15:06:39.805Z,73.25
2018-12-05T15:07:39.794Z,73.15
2018-12-05T15:08:39.806Z,73.25
2018-12-05T15:09:39.772Z,73.57
2018-12-05T15:10:39.761Z,73.25
2018-12-05T15:11:39.754Z,73.25
2018-12-05T15:12:39.743Z,72.88
2018-12-05T15:13:39.756Z,73.91
2018-12-05T15:14:39.726Z,73.80
2018-12-05T15:15:39.708Z,73.91
2018-12-05T15:16:39.704Z,74.11